Time;durP1;ratioP1;P1;durP2;ratioP2;P2;SDS_P1;SDS_P2;PMS_P1;PMS_P2;Temp;Humidity;BMP_temperature;BMP_pressure;BME280_temperature;BME280_humidity;BME280_pressure;Samples;Min_cycle;Max_cycle;Signal;HPM_P1;HPM_P2
2024/04/02 00:02:16;;;;;;;4.90;3.85;;;16.20;82.00;;;;;;4204469;27;20073;-48
2024/04/02 00:04:56;;;;;;;6.63;4.10;;;16.10;81.70;;;;;;4204084;28;20047;-47
2024/04/02 00:07:35;;;;;;;7.13;4.30;;;16.10;81.80;;;;;;4202120;28;20055;-49
2024/04/02 00:10:15;;;;;;;4.20;3.80;;;16.10;81.70;;;;;;4191434;28;20086;-50
2024/04/02 00:12:54;;;;;;;5.33;3.87;;;16.10;81.60;;;;;;4188106;28;20556;-51
2024/04/02 00:15:34;;;;;;;4.15;3.83;;;16.10;81.60;;;;;;4188544;28;20313;-49
2024/04/02 00:18:15;;;;;;;4.75;3.63;;;16.10;81.50;;;;;;4188375;28;20082;-48
2024/04/02 00:21:01;;;;;;;5.53;3.95;;;16.10;81.30;;;;;;4202826;28;20131;-45
2024/04/02 00:23:41;;;;;;;6.20;3.63;;;16.00;81.50;;;;;;4204343;28;20055;-46
2024/04/02 00:26:22;;;;;;;4.38;3.53;;;16.00;81.60;;;;;;4204256;28;20097;-48
2024/04/02 00:29:01;;;;;;;3.88;3.53;;;16.00;81.60;;;;;;4204331;28;20104;-49
2024/04/02 00:31:41;;;;;;;5.93;4.20;;;16.00;81.70;;;;;;4203827;28;20059;-48
2024/04/02 00:34:21;;;;;;;6.22;3.65;;;16.00;81.80;;;;;;4202392;28;20460;-45
2024/04/02 00:37:02;;;;;;;4.77;3.27;;;16.00;81.80;;;;;;4203541;28;20768;-44
2024/04/02 00:39:44;;;;;;;3.80;3.28;;;16.00;81.90;;;;;;4186094;28;20792;-45
2024/04/02 00:42:23;;;;;;;4.05;3.13;;;16.00;81.90;;;;;;4186521;28;20079;-45
2024/04/02 00:45:03;;;;;;;5.90;3.53;;;16.00;82.10;;;;;;4186835;28;20403;-39
2024/04/02 00:47:43;;;;;;;4.32;3.00;;;15.90;82.10;;;;;;4184808;28;20078;-39
2024/04/02 00:50:25;;;;;;;3.55;2.72;;;15.90;81.90;;;;;;4191495;28;20051;-39
2024/04/02 00:53:06;;;;;;;5.07;3.25;;;15.90;81.90;;;;;;4203352;28;20468;-39
2024/04/02 00:55:45;;;;;;;5.03;3.45;;;16.00;82.00;;;;;;4202148;28;20059;-39
2024/04/02 00:58:27;;;;;;;6.53;4.15;;;15.90;82.10;;;;;;4203217;28;20050;-39
2024/04/02 01:01:06;;;;;;;4.57;3.35;;;15.90;82.20;;;;;;4172505;28;20545;-39
2024/04/02 01:03:46;;;;;;;5.28;3.60;;;15.90;82.10;;;;;;4184754;28;20149;-39
2024/04/02 01:06:26;;;;;;;3.40;3.13;;;15.90;82.20;;;;;;4202247;27;20105;-39
2024/04/02 01:09:07;;;;;;;3.33;3.03;;;15.90;82.40;;;;;;4201949;28;20059;-39
2024/04/02 01:11:48;;;;;;;5.28;3.42;;;15.90;82.50;;;;;;4193244;28;20564;-39
2024/04/02 01:14:28;;;;;;;5.20;3.70;;;15.80;82.10;;;;;;4201169;28;20371;-39
2024/04/02 01:17:08;;;;;;;5.00;3.50;;;15.90;82.20;;;;;;4203115;28;20134;-43
2024/04/02 01:19:48;;;;;;;5.63;3.95;;;15.80;82.30;;;;;;4203125;28;20058;-43
2024/04/02 01:22:30;;;;;;;7.57;4.10;;;15.80;82.20;;;;;;4200910;28;20054;-43
2024/04/02 01:25:10;;;;;;;7.13;3.92;;;15.80;82.10;;;;;;4197088;28;20050;-43
2024/04/02 01:27:51;;;;;;;4.45;4.03;;;15.80;82.40;;;;;;4202776;28;20119;-43
2024/04/02 01:30:31;;;;;;;8.23;4.93;;;15.80;82.30;;;;;;4202868;28;20047;-43
2024/04/02 01:33:09;;;;;;;8.57;3.83;;;15.80;82.30;;;;;;4203360;28;20135;-43
2024/04/02 01:35:49;;;;;;;5.00;3.85;;;15.80;82.40;;;;;;4186640;28;20062;-43
2024/04/02 01:38:28;;;;;;;4.22;3.40;;;15.80;82.40;;;;;;4175378;28;20051;-43
2024/04/02 01:41:08;;;;;;;4.45;4.03;;;15.80;82.40;;;;;;4186312;28;20102;-43
2024/04/02 01:43:49;;;;;;;5.93;3.80;;;15.80;82.60;;;;;;4186052;28;20059;-43
2024/04/02 01:46:29;;;;;;;7.00;4.90;;;15.80;82.30;;;;;;4186667;28;20548;-47
2024/04/02 01:49:08;;;;;;;6.40;4.75;;;15.70;82.10;;;;;;4185114;28;20132;-43
2024/04/02 01:51:48;;;;;;;4.90;4.15;;;15.70;82.30;;;;;;4185826;28;20094;-43
2024/04/02 01:54:27;;;;;;;5.07;4.57;;;15.70;82.50;;;;;;4185800;28;20079;-43
2024/04/02 01:57:06;;;;;;;4.50;3.92;;;15.70;82.60;;;;;;4200341;28;20081;-43
2024/04/02 01:59:47;;;;;;;6.20;4.75;;;15.70;82.60;;;;;;4202292;28;20075;-44
2024/04/02 02:02:27;;;;;;;7.73;5.10;;;15.70;82.50;;;;;;4190460;28;20049;-43
2024/04/02 02:05:06;;;;;;;4.68;4.28;;;15.70;82.50;;;;;;4199320;28;20324;-43
2024/04/02 02:07:46;;;;;;;6.90;4.30;;;15.70;82.60;;;;;;4202679;28;20209;-43
2024/04/02 02:10:25;;;;;;;7.00;5.22;;;15.70;82.50;;;;;;4192733;28;20444;-44
2024/04/02 02:13:08;;;;;;;6.25;4.60;;;15.60;82.40;;;;;;4188787;27;20568;-44
2024/04/02 02:15:58;;;;;;;7.68;5.57;;;15.70;82.70;;;;;;4202715;28;20113;-43
2024/04/02 02:18:38;;;;;;;6.10;5.55;;;15.60;82.40;;;;;;4174732;28;20054;-43
2024/04/02 02:21:17;;;;;;;8.23;5.10;;;15.60;82.50;;;;;;4185689;28;20169;-39
2024/04/02 02:23:57;;;;;;;8.20;6.10;;;15.60;82.60;;;;;;4189380;28;20055;-39
2024/04/02 02:26:36;;;;;;;8.23;6.35;;;15.60;82.50;;;;;;4201166;28;20059;-39
2024/04/02 02:29:17;;;;;;;8.15;6.18;;;15.60;82.60;;;;;;4178359;28;20076;-40
2024/04/02 02:31:57;;;;;;;7.93;5.93;;;15.60;82.70;;;;;;4202094;28;20059;-40
2024/04/02 02:34:38;;;;;;;7.10;6.28;;;15.60;82.70;;;;;;4201654;28;20059;-40
2024/04/02 02:37:16;;;;;;;10.10;5.70;;;15.60;82.80;;;;;;4202118;28;20394;-40
2024/04/02 02:39:57;;;;;;;8.38;6.22;;;15.60;82.90;;;;;;4156737;28;20553;-40
2024/04/02 02:42:36;;;;;;;8.02;6.25;;;15.60;83.00;;;;;;4187623;28;20051;-40
2024/04/02 02:45:16;;;;;;;9.52;6.53;;;15.60;82.80;;;;;;4199134;27;20051;-40
2024/04/02 02:47:56;;;;;;;9.45;6.25;;;15.60;82.50;;;;;;4205269;27;20046;-40
2024/04/02 02:50:36;;;;;;;7.05;5.47;;;15.60;82.50;;;;;;4204548;28;20138;-39
2024/04/02 02:53:16;;;;;;;9.85;6.22;;;15.60;82.60;;;;;;4203673;28;20047;-40
2024/04/02 02:55:58;;;;;;;9.68;6.47;;;15.50;82.80;;;;;;4202786;28;20109;-40
2024/04/02 02:58:37;;;;;;;9.35;6.15;;;15.50;82.90;;;;;;4205044;28;20110;-40
2024/04/02 03:01:17;;;;;;;8.77;6.65;;;15.50;82.90;;;;;;4195115;28;20122;-43
2024/04/02 03:03:58;;;;;;;10.63;6.72;;;15.50;83.00;;;;;;4188194;28;20055;-42
2024/04/02 03:06:38;;;;;;;8.65;6.32;;;15.50;82.80;;;;;;4200648;28;20051;-42
2024/04/02 03:09:17;;;;;;;7.97;6.68;;;15.50;82.80;;;;;;4187693;28;20079;-44
2024/04/02 03:11:57;;;;;;;10.25;7.13;;;15.50;82.80;;;;;;4190816;28;20055;-44
2024/04/02 03:14:36;;;;;;;10.35;7.38;;;15.50;82.80;;;;;;4204954;28;20618;-45
2024/04/02 03:17:16;;;;;;;9.23;6.45;;;15.50;82.80;;;;;;4201884;27;20121;-44
2024/04/02 03:19:58;;;;;;;9.68;6.88;;;15.50;82.80;;;;;;4197457;28;20059;-44
2024/04/02 03:22:38;;;;;;;9.48;7.18;;;15.50;83.10;;;;;;4204966;28;20047;-44
2024/04/02 03:25:17;;;;;;;7.75;5.78;;;15.50;83.30;;;;;;4192986;28;20101;-44
2024/04/02 03:27:57;;;;;;;7.47;6.53;;;15.50;83.20;;;;;;4204339;28;20390;-44
2024/04/02 03:30:35;;;;;;;7.50;6.35;;;15.50;83.10;;;;;;4203089;28;20128;-44
2024/04/02 03:33:16;;;;;;;8.30;6.50;;;15.50;83.20;;;;;;4188401;28;20245;-44
2024/04/02 03:36:01;;;;;;;8.18;6.28;;;15.40;83.30;;;;;;4187860;28;20485;-44
2024/04/02 03:38:40;;;;;;;7.88;6.22;;;15.40;83.00;;;;;;4187875;28;20063;-44
2024/04/02 03:41:20;;;;;;;8.60;5.78;;;15.40;83.10;;;;;;4188036;28;20139;-44
2024/04/02 03:44:00;;;;;;;7.45;6.05;;;15.40;83.10;;;;;;4188240;28;20101;-39
2024/04/02 03:46:40;;;;;;;5.78;5.20;;;15.40;83.20;;;;;;4176613;28;20823;-39
2024/04/02 03:49:19;;;;;;;10.13;5.80;;;15.40;83.20;;;;;;4203724;28;20139;-44
2024/04/02 03:52:00;;;;;;;6.72;5.75;;;15.40;83.10;;;;;;4186492;28;20146;-44
2024/04/02 03:54:40;;;;;;;5.75;5.15;;;15.40;83.20;;;;;;4187663;28;20403;-45
2024/04/02 03:57:20;;;;;;;8.68;5.47;;;15.40;83.30;;;;;;4176240;28;20153;-46
2024/04/02 03:59:58;;;;;;;6.47;5.75;;;15.40;83.40;;;;;;4187880;28;20059;-44
2024/04/02 04:02:38;;;;;;;9.32;5.78;;;15.40;83.40;;;;;;4194554;28;20157;-45
2024/04/02 04:05:17;;;;;;;7.55;5.82;;;15.40;83.40;;;;;;4187409;28;20258;-45
2024/04/02 04:07:59;;;;;;;6.10;5.30;;;15.40;83.20;;;;;;4170893;28;20098;-45
2024/04/02 04:10:38;;;;;;;;;;;15.30;82.80;;;;;;4188281;28;20454;-44
2024/04/02 04:13:18;;;;;;;5.97;5.03;;;15.30;82.70;;;;;;4187873;28;19928;-43
2024/04/02 04:15:58;;;;;;;5.40;4.93;;;15.30;83.70;;;;;;4187444;28;20055;-45
2024/04/02 04:18:38;;;;;;;6.57;4.78;;;15.30;83.50;;;;;;4187188;28;20411;-44
2024/04/02 04:21:17;;;;;;;9.70;5.28;;;15.30;83.40;;;;;;4183375;28;20083;-44
2024/04/02 04:23:59;;;;;;;6.50;5.50;;;15.30;83.20;;;;;;4184351;28;20102;-45
2024/04/02 04:26:38;;;;;;;5.38;4.85;;;15.30;83.10;;;;;;4185529;28;20052;-44
2024/04/02 04:29:18;;;;;;;8.15;5.78;;;15.30;83.40;;;;;;4180568;28;20051;-44
2024/04/02 04:31:57;;;;;;;7.00;5.07;;;15.30;84.30;;;;;;4202645;28;20050;-40
2024/04/02 04:34:38;;;;;;;5.95;4.82;;;15.30;83.70;;;;;;4202222;28;20109;-40
2024/04/02 04:37:17;;;;;;;6.40;4.78;;;15.30;83.80;;;;;;4203703;28;20140;-39
2024/04/02 04:39:59;;;;;;;5.82;4.68;;;15.20;83.50;;;;;;4179407;28;20055;-40
2024/04/02 04:42:39;;;;;;;;;;;15.20;83.30;;;;;;4187727;28;20102;-40
2024/04/02 04:45:18;;;;;;;5.95;5.35;;;15.20;83.20;;;;;;4186074;28;19931;-40
2024/04/02 04:47:59;;;;;;;5.07;4.63;;;15.20;84.40;;;;;;4186953;28;20051;-40
2024/04/02 04:50:38;;;;;;;6.30;5.70;;;15.30;84.60;;;;;;4186482;28;20059;-40
2024/04/02 04:53:18;;;;;;;5.32;4.82;;;15.40;84.40;;;;;;4186138;28;20052;-40
2024/04/02 04:56:02;;;;;;;5.50;4.72;;;15.40;83.50;;;;;;4186878;28;20367;-40
2024/04/02 04:58:42;;;;;;;6.72;5.95;;;15.40;82.80;;;;;;4174616;28;20059;-40
2024/04/02 05:01:21;;;;;;;6.35;5.20;;;15.40;82.90;;;;;;4186094;28;20202;-39
2024/04/02 05:04:01;;;;;;;5.75;4.65;;;15.40;82.90;;;;;;4185883;28;20040;-40
2024/04/02 05:06:42;;;;;;;6.10;4.63;;;15.40;82.80;;;;;;4186458;28;20133;-40
2024/04/02 05:09:23;;;;;;;5.53;4.93;;;15.40;82.80;;;;;;4189893;28;20128;-40
2024/04/02 05:12:04;;;;;;;5.45;4.55;;;15.40;82.80;;;;;;4189967;28;20050;-39
2024/04/02 05:14:44;;;;;;;5.35;4.65;;;15.40;83.60;;;;;;4191695;28;20493;-40
2024/04/02 05:17:23;;;;;;;7.85;4.63;;;15.50;84.00;;;;;;4202858;28;20078;-40
2024/04/02 05:20:04;;;;;;;6.05;5.07;;;15.50;83.70;;;;;;4203431;28;20058;-40
2024/04/02 05:22:43;;;;;;;5.22;4.50;;;15.60;83.30;;;;;;4202268;28;20552;-40
2024/04/02 05:25:23;;;;;;;6.03;4.72;;;15.70;83.10;;;;;;4191501;28;20043;-40
2024/04/02 05:28:04;;;;;;;4.95;4.55;;;15.70;83.10;;;;;;4189263;28;20140;-40
2024/04/02 05:30:43;;;;;;;4.78;4.35;;;15.80;82.80;;;;;;4189369;28;20142;-40
2024/04/02 05:33:23;;;;;;;6.47;4.32;;;15.80;82.60;;;;;;4175609;28;20779;-40
2024/04/02 05:36:03;;;;;;;6.43;4.80;;;15.80;83.00;;;;;;4195074;28;20051;-39
2024/04/02 05:38:43;;;;;;;4.07;3.78;;;15.80;82.80;;;;;;4202039;28;20101;-40
2024/04/02 05:41:23;;;;;;;4.68;4.10;;;15.90;82.60;;;;;;4202388;28;20513;-40
2024/04/02 05:44:04;;;;;;;4.50;4.10;;;15.90;82.40;;;;;;4202596;28;20136;-43
2024/04/02 05:46:44;;;;;;;4.90;3.90;;;16.00;82.00;;;;;;4192556;28;20051;-48
2024/04/02 05:49:23;;;;;;;5.38;3.92;;;16.10;81.60;;;;;;4176350;28;20435;-39
2024/04/02 05:52:03;;;;;;;4.80;3.45;;;16.10;81.40;;;;;;4203045;28;20046;-40
2024/04/02 05:54:42;;;;;;;5.95;3.17;;;16.10;81.30;;;;;;4200825;28;20063;-39
2024/04/02 05:57:22;;;;;;;5.00;3.90;;;16.10;80.90;;;;;;4190852;28;20046;-40
2024/04/02 06:00:05;;;;;;;5.43;3.55;;;16.10;80.10;;;;;;4195651;28;20115;-40
2024/04/02 06:02:52;;;;;;;3.90;3.67;;;16.10;79.40;;;;;;4191750;28;20100;-40
2024/04/02 06:05:32;;;;;;;5.22;3.95;;;16.10;77.70;;;;;;4185861;28;20060;-40
2024/04/02 06:08:12;;;;;;;4.57;3.83;;;16.10;76.70;;;;;;4185947;28;20152;-39
2024/04/02 06:10:52;;;;;;;8.73;4.10;;;16.10;76.40;;;;;;4185465;28;20534;-40
2024/04/02 06:13:31;;;;;;;3.33;3.05;;;16.10;76.20;;;;;;4185873;28;20113;-43
2024/04/02 06:16:12;;;;;;;6.40;2.92;;;16.10;75.90;;;;;;4188402;27;20085;-44
2024/04/02 06:18:52;;;;;;;2.20;1.92;;;16.10;75.30;;;;;;4189593;28;20567;-43
2024/04/02 06:21:32;;;;;;;4.10;3.30;;;16.10;74.50;;;;;;4184375;28;20058;-41
2024/04/02 06:24:11;;;;;;;2.97;2.70;;;16.10;74.10;;;;;;4201978;28;20128;-43
2024/04/02 06:26:51;;;;;;;2.47;2.28;;;16.20;73.90;;;;;;4205998;28;20054;-43
2024/04/02 06:29:30;;;;;;;2.20;2.10;;;16.20;73.40;;;;;;4205042;28;20513;-40
2024/04/02 06:32:11;;;;;;;7.22;3.65;;;16.20;72.60;;;;;;4204200;28;20063;-40
2024/04/02 06:34:50;;;;;;;;;;;16.20;72.20;;;;;;4205348;28;20128;-40
2024/04/02 06:37:31;;;;;;;4.38;3.45;;;16.20;72.10;;;;;;4205981;28;20001;-40
2024/04/02 06:40:10;;;;;;;2.47;1.83;;;16.20;71.70;;;;;;4205246;28;20101;-39
2024/04/02 06:42:50;;;;;;;3.67;3.38;;;16.20;71.40;;;;;;4205645;28;20805;-39
2024/04/02 06:45:29;;;;;;;4.00;3.60;;;16.20;71.30;;;;;;4204853;28;20101;-40
2024/04/02 06:48:10;;;;;;;3.53;2.78;;;16.20;71.20;;;;;;4180634;28;20110;-40
2024/04/02 06:50:56;;;;;;;;;;;16.10;71.20;;;;;;4187785;28;20061;-40
2024/04/02 06:53:36;;;;;;;1.40;1.30;;;16.10;71.20;;;;;;4188346;28;19931;-39
2024/04/02 06:56:16;;;;;;;3.90;3.10;;;16.00;71.10;;;;;;4192644;28;20055;-39
2024/04/02 06:58:55;;;;;;;2.17;2.03;;;16.00;71.40;;;;;;4204703;28;20079;-39
2024/04/02 07:01:34;;;;;;;6.00;4.13;;;15.90;71.50;;;;;;4202754;28;20047;-40
2024/04/02 07:04:16;;;;;;;4.75;3.03;;;15.90;71.70;;;;;;4204573;28;20566;-39
2024/04/02 07:06:55;;;;;;;3.13;2.92;;;15.90;71.90;;;;;;4204695;28;20050;-39
2024/04/02 07:09:35;;;;;;;4.07;2.83;;;15.90;71.80;;;;;;4187930;28;20506;-39
2024/04/02 07:12:14;;;;;;;5.63;3.28;;;16.00;71.80;;;;;;4203068;28;20148;-43
2024/04/02 07:14:54;;;;;;;2.50;2.30;;;16.00;72.30;;;;;;4192445;28;20185;-44
2024/04/02 07:17:33;;;;;;;4.63;3.38;;;16.00;72.60;;;;;;4199270;28;20128;-43
2024/04/02 07:20:15;;;;;;;4.32;3.03;;;16.00;72.50;;;;;;4194657;28;20798;-44
2024/04/02 07:22:54;;;;;;;4.60;3.20;;;16.00;72.30;;;;;;4204675;28;20055;-44
2024/04/02 07:25:34;;;;;;;4.80;3.55;;;16.00;72.40;;;;;;4204328;28;20097;-43
2024/04/02 07:28:13;;;;;;;3.53;3.20;;;16.00;72.50;;;;;;4191606;28;20050;-43
2024/04/02 07:30:53;;;;;;;7.88;3.00;;;16.00;72.50;;;;;;4195931;28;20095;-40
2024/04/02 07:33:32;;;;;;;4.30;3.30;;;16.00;72.60;;;;;;4188197;28;20094;-40
2024/04/02 07:36:14;;;;;;;3.85;3.30;;;15.90;73.00;;;;;;4188192;28;20101;-44
2024/04/02 07:38:54;;;;;;;4.60;2.95;;;15.90;73.70;;;;;;4205072;28;20093;-44
2024/04/02 07:41:33;;;;;;;0.98;0.98;;;15.90;74.20;;;;;;4193406;28;20050;-43
2024/04/02 07:44:13;;;;;;;4.78;2.97;;;15.90;75.10;;;;;;4200101;28;20048;-43
2024/04/02 07:46:52;;;;;;;3.47;2.90;;;15.90;74.30;;;;;;4175898;28;20055;-43
2024/04/02 07:49:32;;;;;;;3.92;3.25;;;15.90;74.10;;;;;;4188141;28;20047;-44
2024/04/02 07:52:13;;;;;;;5.30;3.13;;;15.90;74.00;;;;;;4192612;28;20140;-43
2024/04/02 07:54:53;;;;;;;2.85;1.75;;;15.80;73.90;;;;;;4198282;28;20070;-43
2024/04/02 07:57:32;;;;;;;7.68;2.88;;;15.80;73.90;;;;;;4187208;28;20110;-43
2024/04/02 08:00:13;;;;;;;3.88;1.85;;;15.80;74.00;;;;;;4187289;28;20475;-42
2024/04/02 08:02:53;;;;;;;6.03;3.08;;;15.80;74.00;;;;;;4203504;28;20070;-43
2024/04/02 08:05:32;;;;;;;9.27;3.25;;;15.80;75.10;;;;;;4203657;28;20352;-43
2024/04/02 08:08:13;;;;;;;4.15;3.30;;;15.80;74.80;;;;;;4203054;28;20517;-43
2024/04/02 08:10:53;;;;;;;3.05;2.03;;;15.70;74.30;;;;;;4204017;28;20101;-44
2024/04/02 08:13:32;;;;;;;3.90;2.97;;;15.70;74.40;;;;;;4187285;28;20059;-43
2024/04/02 08:16:17;;;;;;;5.05;2.45;;;15.70;74.50;;;;;;4187022;28;20054;-43
2024/04/02 08:18:56;;;;;;;8.60;3.63;;;15.70;74.60;;;;;;4186811;28;20186;-46
2024/04/02 08:21:37;;;;;;;3.22;1.83;;;15.70;74.80;;;;;;4187798;28;20574;-41
2024/04/02 08:24:17;;;;;;;3.78;2.55;;;15.60;75.10;;;;;;4196804;28;20054;-42
2024/04/02 08:26:57;;;;;;;2.55;2.35;;;15.60;75.30;;;;;;4202271;28;20043;-40
2024/04/02 08:29:36;;;;;;;2.05;1.35;;;15.60;75.60;;;;;;4202875;28;20051;-42
2024/04/02 08:32:16;;;;;;;2.30;2.13;;;15.60;75.90;;;;;;4203593;28;20551;-41
2024/04/02 08:34:56;;;;;;;3.83;3.03;;;15.70;76.10;;;;;;4202821;28;20054;-40
2024/04/02 08:37:36;;;;;;;4.28;3.47;;;15.60;76.10;;;;;;4189614;28;20085;-41
2024/04/02 08:40:16;;;;;;;7.45;4.63;;;15.70;76.20;;;;;;4189279;28;20109;-42
2024/04/02 08:43:05;;;;;;;6.53;4.53;;;15.70;76.20;;;;;;4189272;28;20071;-41
2024/04/02 08:45:44;;;;;;;6.75;3.20;;;15.70;76.30;;;;;;4193361;28;20059;-42
2024/04/02 08:48:26;;;;;;;5.07;3.17;;;15.70;76.20;;;;;;4203234;28;20051;-40
2024/04/02 08:51:05;;;;;;;6.90;4.30;;;15.70;76.00;;;;;;4188177;27;20101;-41
2024/04/02 08:53:45;;;;;;;5.43;4.13;;;15.70;76.00;;;;;;4202874;27;20059;-42
2024/04/02 08:56:25;;;;;;;11.50;4.95;;;15.80;76.10;;;;;;4199811;27;20059;-42
2024/04/02 08:59:05;;;;;;;3.33;2.95;;;15.80;76.20;;;;;;4186309;28;20070;-41
2024/04/02 09:01:45;;;;;;;9.85;3.63;;;15.80;76.10;;;;;;4185881;28;20055;-42
2024/04/02 09:04:26;;;;;;;3.60;2.63;;;15.80;76.30;;;;;;4186186;28;20055;-41
2024/04/02 09:07:05;;;;;;;6.70;3.85;;;15.90;76.20;;;;;;4186261;28;20136;-40
2024/04/02 09:09:46;;;;;;;5.57;3.47;;;15.90;76.00;;;;;;4185837;28;20060;-40
2024/04/02 09:12:26;;;;;;;8.55;4.80;;;15.90;75.90;;;;;;4186151;28;20056;-40
2024/04/02 09:15:07;;;;;;;7.97;4.15;;;15.90;75.70;;;;;;4174827;28;20411;-40
2024/04/02 09:17:47;;;;;;;8.48;4.00;;;15.90;75.80;;;;;;4201460;28;20055;-40
2024/04/02 09:20:26;;;;;;;8.52;4.68;;;15.90;75.90;;;;;;4202742;28;20129;-41
2024/04/02 09:23:06;;;;;;;6.57;2.83;;;15.90;75.90;;;;;;4202124;28;20075;-41
2024/04/02 09:25:48;;;;;;;9.32;3.63;;;15.90;76.60;;;;;;4202455;28;20172;-40
2024/04/02 09:28:29;;;;;;;4.40;3.10;;;15.90;75.70;;;;;;4178522;28;20060;-42
2024/04/02 09:31:08;;;;;;;7.15;3.60;;;16.00;75.80;;;;;;4190486;28;20520;-41
2024/04/02 09:33:50;;;;;;;7.05;3.90;;;16.00;76.20;;;;;;4186080;28;20418;-40
2024/04/02 09:36:40;;;;;;;3.85;2.28;;;16.00;76.50;;;;;;4190987;28;20058;-40
2024/04/02 09:39:22;;;;;;;8.00;4.15;;;16.10;76.60;;;;;;4202839;28;20405;-43
2024/04/02 09:42:02;;;;;;;8.25;4.07;;;16.10;76.10;;;;;;4202835;28;20057;-43
2024/04/02 09:44:46;;;;;;;6.40;3.67;;;16.10;75.60;;;;;;4200118;28;20544;-44
2024/04/02 09:47:26;;;;;;;2.97;1.88;;;16.10;75.50;;;;;;4190770;28;20113;-42
2024/04/02 09:50:07;;;;;;;7.78;3.00;;;16.10;75.50;;;;;;4202117;28;20125;-42
2024/04/02 09:52:48;;;;;;;3.90;3.20;;;16.10;75.60;;;;;;4201550;28;20058;-42
2024/04/02 09:55:30;;;;;;;6.30;2.53;;;16.10;75.50;;;;;;4195241;28;20399;-43
2024/04/02 09:58:12;;;;;;;7.07;3.17;;;16.10;75.40;;;;;;4187275;28;20140;-43
2024/04/02 10:00:55;;;;;;;8.43;2.33;;;16.00;75.30;;;;;;4201779;27;20067;-43
2024/04/02 10:03:37;;;;;;;6.43;2.50;;;16.00;75.30;;;;;;4201233;28;20520;-43
2024/04/02 10:06:18;;;;;;;3.30;2.28;;;16.00;75.30;;;;;;4185585;28;20528;-43
2024/04/02 10:08:58;;;;;;;4.32;2.45;;;16.10;75.20;;;;;;4201934;28;20121;-41
2024/04/02 10:11:39;;;;;;;8.00;2.75;;;16.00;75.10;;;;;;4201774;28;20421;-41
2024/04/02 10:14:20;;;;;;;4.30;2.60;;;16.00;75.00;;;;;;4202478;28;20139;-43
2024/04/02 10:17:01;;;;;;;5.57;2.45;;;16.10;75.00;;;;;;4202758;28;20059;-42
2024/04/02 10:19:44;;;;;;;10.27;2.63;;;16.10;75.10;;;;;;4190565;28;20070;-42
2024/04/02 10:22:30;;;;;;;4.85;2.30;;;16.10;75.00;;;;;;4202798;28;20131;-40
2024/04/02 10:25:11;;;;;;;2.67;1.52;;;16.10;74.90;;;;;;4198511;28;20050;-40
2024/04/02 10:27:52;;;;;;;6.40;1.70;;;16.10;74.80;;;;;;4193341;28;20161;-40
2024/04/02 10:30:33;;;;;;;6.53;2.25;;;16.10;74.70;;;;;;4176688;28;20056;-40
2024/04/02 10:33:18;;;;;;;5.05;1.90;;;16.10;74.50;;;;;;4185655;28;20125;-40
2024/04/02 10:36:02;;;;;;;6.35;2.30;;;16.10;74.40;;;;;;4193848;28;20089;-40
2024/04/02 10:38:41;;;;;;;7.45;2.92;;;16.10;74.30;;;;;;4196951;28;20139;-40
2024/04/02 10:41:21;;;;;;;4.45;2.45;;;16.10;74.10;;;;;;4185572;28;20580;-41
2024/04/02 10:44:00;;;;;;;5.55;2.47;;;16.10;73.90;;;;;;4175384;28;20118;-47
2024/04/02 10:46:42;;;;;;;4.32;2.05;;;16.10;73.70;;;;;;4191258;28;20517;-40
2024/04/02 10:49:22;;;;;;;3.45;3.00;;;16.10;73.40;;;;;;4199317;28;20059;-42
2024/04/02 10:52:06;;;;;;;2.63;1.45;;;16.10;73.20;;;;;;4185455;28;20055;-43
2024/04/02 10:54:45;;;;;;;3.92;1.98;;;16.20;73.20;;;;;;4185350;28;20536;-45
2024/04/02 10:57:27;;;;;;;8.48;2.63;;;16.10;73.10;;;;;;4185779;28;20399;-42
2024/04/02 11:00:09;;;;;;;3.50;2.45;;;16.20;73.10;;;;;;4193310;28;20387;-43
2024/04/02 11:02:49;;;;;;;4.15;2.13;;;16.10;72.90;;;;;;4202478;27;20067;-38
2024/04/02 11:05:29;;;;;;;2.47;1.75;;;16.10;72.80;;;;;;4203090;28;22144;-39
2024/04/02 11:08:10;;;;;;;4.65;2.08;;;16.20;72.80;;;;;;4198715;28;20374;-39
2024/04/02 11:10:49;;;;;;;7.80;1.90;;;16.20;72.80;;;;;;4205328;28;20051;-42
2024/04/02 11:13:29;;;;;;;3.65;2.42;;;16.10;72.60;;;;;;4205337;28;20078;-39
2024/04/02 11:16:08;;;;;;;4.32;1.73;;;16.20;72.50;;;;;;4204731;28;20132;-39
2024/04/02 11:18:48;;;;;;;3.80;2.80;;;16.10;72.40;;;;;;4192391;28;20116;-40
2024/04/02 11:21:34;;;;;;;6.72;4.43;;;16.10;72.50;;;;;;4191512;28;20055;-39
2024/04/02 11:27:22;;;;;;;6.95;2.28;;;16.20;73.20;;;;;;4187107;28;20129;-43
2024/04/02 11:30:02;;;;;;;7.07;4.57;;;16.20;73.30;;;;;;4176962;28;20064;-43
2024/04/02 11:32:41;;;;;;;5.07;4.38;;;16.20;73.40;;;;;;4180985;28;20059;-43
2024/04/02 11:35:21;;;;;;;9.95;4.63;;;16.30;73.50;;;;;;4194409;28;20453;-40
2024/04/02 11:38:01;;;;;;;6.40;4.35;;;16.30;73.60;;;;;;4204975;28;20100;-39
2024/04/02 11:40:42;;;;;;;6.43;5.00;;;16.30;74.00;;;;;;4205193;27;20062;-39
2024/04/02 11:43:21;;;;;;;10.77;4.47;;;16.30;74.00;;;;;;4205282;28;20051;-39
2024/04/02 11:46:02;;;;;;;8.98;4.60;;;16.30;75.00;;;;;;4197756;28;20636;-39
2024/04/02 11:48:42;;;;;;;4.47;4.00;;;16.20;74.40;;;;;;4188333;28;20151;-39
2024/04/02 11:51:21;;;;;;;8.63;4.20;;;16.20;74.60;;;;;;4188197;28;20055;-39
2024/04/02 11:54:02;;;;;;;7.55;4.85;;;16.20;74.60;;;;;;4187240;28;20505;-45
2024/04/02 12:02:36;;;;;;;6.63;4.18;;;16.20;76.00;;;;;;4192111;28;20071;-41
2024/04/02 12:05:18;;;;;;;6.65;4.28;;;16.20;75.30;;;;;;4187831;28;20051;-44
2024/04/02 12:07:58;;;;;;;7.90;3.72;;;16.20;75.40;;;;;;4187804;28;20118;-44
2024/04/02 12:10:39;;;;;;;7.05;3.00;;;16.20;75.40;;;;;;4202611;28;20124;-45
2024/04/02 12:13:18;;;;;;;7.18;3.70;;;16.20;75.40;;;;;;4198804;28;20449;-44
2024/04/02 12:15:58;;;;;;;6.40;3.15;;;16.20;75.40;;;;;;4192220;28;20519;-40
2024/04/02 12:18:40;;;;;;;4.30;2.75;;;16.20;75.20;;;;;;4204132;28;20399;-40
2024/04/02 12:21:20;;;;;;;12.93;4.50;;;16.10;75.30;;;;;;4203633;27;20097;-40
2024/04/02 12:23:59;;;;;;;6.50;2.53;;;16.10;75.60;;;;;;4192385;27;20062;-40
2024/04/02 12:26:40;;;;;;;4.07;2.42;;;16.10;75.60;;;;;;4203594;28;20231;-39
2024/04/02 12:29:21;;;;;;;6.72;3.47;;;16.10;75.90;;;;;;4187247;28;20071;-40
2024/04/02 12:32:00;;;;;;;9.02;3.40;;;16.10;76.10;;;;;;4187457;28;20052;-40
2024/04/02 12:34:41;;;;;;;4.03;2.30;;;16.10;76.10;;;;;;4186735;28;20051;-40
2024/04/02 12:37:20;;;;;;;6.45;2.45;;;16.10;76.20;;;;;;4175664;28;20151;-40
2024/04/02 12:40:00;;;;;;;5.55;3.03;;;16.10;76.00;;;;;;4174825;28;20098;-44
2024/04/02 12:42:40;;;;;;;3.10;2.40;;;16.10;76.20;;;;;;4199541;28;20105;-40
2024/04/02 12:45:21;;;;;;;5.50;2.37;;;16.10;76.50;;;;;;4203457;28;20097;-40
2024/04/02 12:48:00;;;;;;;3.80;1.88;;;16.10;76.60;;;;;;4187138;28;20414;-45
2024/04/02 12:50:50;;;;;;;4.72;2.20;;;16.20;76.80;;;;;;4186457;28;20063;-44
2024/04/02 12:53:29;;;;;;;5.72;1.98;;;16.20;76.60;;;;;;4177033;28;20532;-46
2024/04/02 12:56:10;;;;;;;2.70;2.15;;;16.20;76.60;;;;;;4195993;28;20050;-44
2024/04/02 12:58:51;;;;;;;5.40;2.03;;;16.30;76.80;;;;;;4203565;28;20058;-48
2024/04/02 13:01:32;;;;;;;6.38;2.17;;;16.30;76.80;;;;;;4203350;28;20284;-44
2024/04/02 13:04:11;;;;;;;4.35;1.75;;;16.40;77.80;;;;;;4203186;28;20059;-47
2024/04/02 13:06:51;;;;;;;5.63;1.90;;;16.40;76.60;;;;;;4203011;28;20051;-47
2024/04/02 13:09:31;;;;;;;5.70;1.92;;;16.40;76.60;;;;;;4203007;28;20055;-46
2024/04/02 13:12:12;;;;;;;5.35;1.90;;;16.40;76.40;;;;;;4203811;28;20616;-41
2024/04/02 13:14:52;;;;;;;10.23;2.30;;;16.50;76.20;;;;;;4191602;28;20109;-41
2024/04/02 13:17:33;;;;;;;4.32;1.80;;;16.50;76.30;;;;;;4185525;28;20109;-41
2024/04/02 13:20:11;;;;;;;3.63;2.50;;;16.50;76.40;;;;;;4202577;28;20129;-41
2024/04/02 13:22:51;;;;;;;5.63;2.55;;;16.50;76.30;;;;;;4186555;28;20060;-41
2024/04/02 13:25:31;;;;;;;3.88;1.95;;;16.50;76.40;;;;;;4185955;28;20051;-46
2024/04/02 13:28:11;;;;;;;6.35;1.88;;;16.40;76.50;;;;;;4186141;28;20600;-47
2024/04/02 13:30:51;;;;;;;7.72;2.70;;;16.40;76.20;;;;;;4186241;28;20399;-45
2024/04/02 13:33:31;;;;;;;11.00;2.78;;;16.50;76.20;;;;;;4186458;28;20071;-46
2024/04/02 13:36:14;;;;;;;4.60;1.40;;;16.50;77.10;;;;;;4187884;28;20078;-46
2024/04/02 13:38:56;;;;;;;4.13;1.65;;;16.50;76.20;;;;;;4203403;28;20130;-41
2024/04/02 13:41:35;;;;;;;7.63;2.25;;;16.50;76.20;;;;;;4203102;28;20058;-41
2024/04/02 13:44:15;;;;;;;5.35;2.35;;;16.50;75.60;;;;;;4202276;28;20438;-45
2024/04/02 13:46:55;;;;;;;6.00;1.45;;;16.50;75.60;;;;;;4190385;28;20533;-46
2024/04/02 13:49:35;;;;;;;3.88;1.92;;;16.50;76.00;;;;;;4202562;28;20055;-41
2024/04/02 13:52:14;;;;;;;4.22;1.80;;;16.50;76.30;;;;;;4199599;28;20605;-41
2024/04/02 13:54:54;;;;;;;5.50;2.10;;;16.50;76.40;;;;;;4186224;28;20407;-41
2024/04/02 13:57:33;;;;;;;5.30;2.38;;;16.50;76.30;;;;;;4186021;28;20099;-46
2024/04/02 14:00:14;;;;;;;5.97;2.75;;;16.50;76.40;;;;;;4186759;28;20161;-47
2024/04/02 14:02:55;;;;;;;4.03;2.72;;;16.50;76.60;;;;;;4186755;27;20121;-41
2024/04/02 14:05:35;;;;;;;6.97;2.40;;;16.50;76.50;;;;;;4186892;28;20813;-49